sensor_id;sensor_type;location;lat;lon;timestamp;pressure;altitude;pressure_sealevel;temperature;humidity
8941;BME280;4505;43.406;23.226;2022-12-10T00:02:11;99206.16;;;5.35;100.00
8941;BME280;4505;43.406;23.226;2022-12-10T00:04:38;99209.03;;;5.27;100.00
8941;BME280;4505;43.406;23.226;2022-12-10T00:07:04;99187.34;;;5.32;100.00
8941;BME280;4505;43.406;23.226;2022-12-10T00:09:31;99195.88;;;5.27;100.00
8941;BME280;4505;43.406;23.226;2022-12-10T00:11:58;99187.38;;;5.25;100.00
8941;BME280;4505;43.406;23.226;2022-12-10T00:14:25;99196.50;;;5.23;100.00
8941;BME280;4505;43.406;23.226;2022-12-10T00:16:52;99200.75;;;5.24;100.00
8941;BME280;4505;43.406;23.226;2022-12-10T00:19:20;99188.00;;;5.21;100.00
8941;BME280;4505;43.406;23.226;2022-12-10T00:21:47;99196.22;;;5.37;100.00
8941;BME280;4505;43.406;23.226;2022-12-10T00:24:13;99210.31;;;5.49;100.00
8941;BME280;4505;43.406;23.226;2022-12-10T00:26:40;99196.75;;;5.77;100.00
8941;BME280;4505;43.406;23.226;2022-12-10T00:29:07;99208.72;;;6.04;100.00
8941;BME280;4505;43.406;23.226;2022-12-10T00:31:37;99222.09;;;6.03;100.00
8941;BME280;4505;43.406;23.226;2022-12-10T00:34:05;99193.94;;;5.72;100.00
8941;BME280;4505;43.406;23.226;2022-12-10T00:36:46;99203.53;;;5.66;100.00
8941;BME280;4505;43.406;23.226;2022-12-10T00:39:14;99226.97;;;5.43;100.00
8941;BME280;4505;43.406;23.226;2022-12-10T00:41:41;99222.75;;;5.36;100.00
8941;BME280;4505;43.406;23.226;2022-12-10T00:44:08;99204.72;;;5.39;100.00
8941;BME280;4505;43.406;23.226;2022-12-10T00:46:34;99188.78;;;5.28;100.00
8941;BME280;4505;43.406;23.226;2022-12-10T00:49:03;99191.91;;;5.43;100.00
8941;BME280;4505;43.406;23.226;2022-12-10T00:51:30;99181.50;;;5.30;100.00
8941;BME280;4505;43.406;23.226;2022-12-10T00:53:57;99171.22;;;5.22;100.00
8941;BME280;4505;43.406;23.226;2022-12-10T00:56:24;99173.25;;;5.20;100.00
8941;BME280;4505;43.406;23.226;2022-12-10T00:58:51;99164.03;;;5.35;100.00
8941;BME280;4505;43.406;23.226;2022-12-10T01:01:20;99184.19;;;5.79;100.00
8941;BME280;4505;43.406;23.226;2022-12-10T01:03:48;99188.78;;;5.59;100.00
8941;BME280;4505;43.406;23.226;2022-12-10T01:06:17;99195.41;;;5.68;100.00
8941;BME280;4505;43.406;23.226;2022-12-10T01:08:44;99187.25;;;5.76;100.00
8941;BME280;4505;43.406;23.226;2022-12-10T01:11:11;99194.66;;;5.92;100.00
8941;BME280;4505;43.406;23.226;2022-12-10T01:13:39;99204.97;;;5.62;100.00
8941;BME280;4505;43.406;23.226;2022-12-10T01:16:06;99194.25;;;5.57;100.00
8941;BME280;4505;43.406;23.226;2022-12-10T01:18:33;99186.88;;;5.41;100.00
8941;BME280;4505;43.406;23.226;2022-12-10T01:21:01;99191.00;;;5.31;100.00
8941;BME280;4505;43.406;23.226;2022-12-10T01:23:29;99190.53;;;5.40;100.00
8941;BME280;4505;43.406;23.226;2022-12-10T01:25:58;99177.88;;;5.24;100.00
8941;BME280;4505;43.406;23.226;2022-12-10T01:28:25;99177.78;;;5.37;100.00
8941;BME280;4505;43.406;23.226;2022-12-10T01:30:51;99162.97;;;5.43;100.00
8941;BME280;4505;43.406;23.226;2022-12-10T01:33:18;99168.91;;;5.32;100.00
8941;BME280;4505;43.406;23.226;2022-12-10T01:35:44;99156.94;;;5.36;100.00
8941;BME280;4505;43.406;23.226;2022-12-10T01:38:11;99155.19;;;5.54;100.00
8941;BME280;4505;43.406;23.226;2022-12-10T01:40:39;99155.94;;;5.61;100.00
8941;BME280;4505;43.406;23.226;2022-12-10T01:43:09;99151.72;;;6.10;100.00
8941;BME280;4505;43.406;23.226;2022-12-10T01:45:39;99150.69;;;6.11;100.00
8941;BME280;4505;43.406;23.226;2022-12-10T01:48:05;99133.06;;;5.87;100.00
8941;BME280;4505;43.406;23.226;2022-12-10T01:50:32;99135.81;;;5.49;100.00
8941;BME280;4505;43.406;23.226;2022-12-10T01:52:58;99125.00;;;5.57;100.00
8941;BME280;4505;43.406;23.226;2022-12-10T01:55:41;99103.50;;;5.60;100.00
8941;BME280;4505;43.406;23.226;2022-12-10T01:58:08;99104.38;;;5.72;100.00
8941;BME280;4505;43.406;23.226;2022-12-10T02:00:36;99086.03;;;5.90;100.00
8941;BME280;4505;43.406;23.226;2022-12-10T02:03:06;99088.06;;;5.88;100.00
8941;BME280;4505;43.406;23.226;2022-12-10T02:05:36;99085.13;;;5.96;100.00
8941;BME280;4505;43.406;23.226;2022-12-10T02:08:08;99091.44;;;5.70;100.00
8941;BME280;4505;43.406;23.226;2022-12-10T02:10:43;99100.06;;;5.59;100.00
8941;BME280;4505;43.406;23.226;2022-12-10T02:13:14;99091.16;;;6.03;100.00
8941;BME280;4505;43.406;23.226;2022-12-10T02:15:43;99103.94;;;5.75;100.00
8941;BME280;4505;43.406;23.226;2022-12-10T02:18:12;99096.72;;;5.70;100.00
8941;BME280;4505;43.406;23.226;2022-12-10T02:20:40;99098.91;;;5.73;100.00
8941;BME280;4505;43.406;23.226;2022-12-10T02:23:07;99091.75;;;5.38;100.00
8941;BME280;4505;43.406;23.226;2022-12-10T02:25:36;99087.34;;;5.25;100.00
8941;BME280;4505;43.406;23.226;2022-12-10T02:28:09;99097.88;;;5.25;100.00
8941;BME280;4505;43.406;23.226;2022-12-10T02:30:39;99080.09;;;5.21;100.00
8941;BME280;4505;43.406;23.226;2022-12-10T02:33:07;99072.16;;;5.27;100.00
8941;BME280;4505;43.406;23.226;2022-12-10T02:35:35;99076.66;;;5.20;100.00
8941;BME280;4505;43.406;23.226;2022-12-10T02:38:07;99087.03;;;5.15;100.00
8941;BME280;4505;43.406;23.226;2022-12-10T02:40:36;99063.94;;;5.17;100.00
8941;BME280;4505;43.406;23.226;2022-12-10T02:43:05;99075.28;;;5.18;100.00
8941;BME280;4505;43.406;23.226;2022-12-10T02:45:32;99088.56;;;5.54;100.00
8941;BME280;4505;43.406;23.226;2022-12-10T02:48:02;99085.78;;;5.49;100.00
8941;BME280;4505;43.406;23.226;2022-12-10T02:50:29;99093.03;;;5.53;100.00
8941;BME280;4505;43.406;23.226;2022-12-10T02:52:56;99096.25;;;5.55;100.00
8941;BME280;4505;43.406;23.226;2022-12-10T02:55:22;99102.50;;;5.79;100.00
8941;BME280;4505;43.406;23.226;2022-12-10T02:57:53;99111.34;;;5.66;100.00
8941;BME280;4505;43.406;23.226;2022-12-10T03:00:25;99120.13;;;5.78;100.00
8941;BME280;4505;43.406;23.226;2022-12-10T03:02:59;99101.66;;;5.36;100.00
8941;BME280;4505;43.406;23.226;2022-12-10T03:05:30;99098.47;;;5.27;100.00
8941;BME280;4505;43.406;23.226;2022-12-10T03:08:01;99096.50;;;5.23;100.00
8941;BME280;4505;43.406;23.226;2022-12-10T03:10:31;99083.78;;;5.20;100.00
8941;BME280;4505;43.406;23.226;2022-12-10T03:13:00;99102.03;;;5.15;100.00
8941;BME280;4505;43.406;23.226;2022-12-10T03:15:28;99105.25;;;5.17;100.00
8941;BME280;4505;43.406;23.226;2022-12-10T03:17:56;99087.78;;;5.22;100.00
8941;BME280;4505;43.406;23.226;2022-12-10T03:20:22;99079.28;;;5.20;100.00
8941;BME280;4505;43.406;23.226;2022-12-10T03:22:51;99073.44;;;5.43;100.00
8941;BME280;4505;43.406;23.226;2022-12-10T03:25:19;99084.72;;;5.74;100.00
8941;BME280;4505;43.406;23.226;2022-12-10T03:27:48;99072.28;;;5.63;100.00
8941;BME280;4505;43.406;23.226;2022-12-10T03:30:16;99082.03;;;5.81;100.00
8941;BME280;4505;43.406;23.226;2022-12-10T03:32:56;99071.31;;;5.58;100.00
8941;BME280;4505;43.406;23.226;2022-12-10T03:35:23;99059.38;;;5.31;100.00
8941;BME280;4505;43.406;23.226;2022-12-10T03:37:52;99074.03;;;5.20;100.00
8941;BME280;4505;43.406;23.226;2022-12-10T03:40:20;99071.72;;;5.30;100.00
8941;BME280;4505;43.406;23.226;2022-12-10T03:42:48;99065.34;;;5.20;100.00
8941;BME280;4505;43.406;23.226;2022-12-10T03:45:14;99070.72;;;5.31;100.00
8941;BME280;4505;43.406;23.226;2022-12-10T03:47:41;99073.25;;;5.20;100.00
8941;BME280;4505;43.406;23.226;2022-12-10T03:50:08;99044.16;;;5.57;100.00
8941;BME280;4505;43.406;23.226;2022-12-10T03:52:35;99055.59;;;5.69;100.00
8941;BME280;4505;43.406;23.226;2022-12-10T03:55:03;99042.53;;;5.81;100.00
8941;BME280;4505;43.406;23.226;2022-12-10T03:57:30;99047.41;;;5.77;100.00
8941;BME280;4505;43.406;23.226;2022-12-10T03:59:56;99064.78;;;5.60;100.00
8941;BME280;4505;43.406;23.226;2022-12-10T04:02:23;99052.66;;;5.35;100.00
8941;BME280;4505;43.406;23.226;2022-12-10T04:04:49;99062.66;;;5.26;100.00
8941;BME280;4505;43.406;23.226;2022-12-10T04:07:16;99068.63;;;5.15;100.00
8941;BME280;4505;43.406;23.226;2022-12-10T04:09:43;99067.16;;;5.19;100.00
8941;BME280;4505;43.406;23.226;2022-12-10T04:12:11;99081.53;;;5.23;100.00
8941;BME280;4505;43.406;23.226;2022-12-10T04:14:37;99073.25;;;5.20;100.00
8941;BME280;4505;43.406;23.226;2022-12-10T04:17:21;99074.41;;;5.24;100.00
8941;BME280;4505;43.406;23.226;2022-12-10T04:19:48;99072.97;;;5.28;100.00
8941;BME280;4505;43.406;23.226;2022-12-10T04:22:14;99082.91;;;5.26;100.00
8941;BME280;4505;43.406;23.226;2022-12-10T04:24:57;99094.41;;;5.31;100.00
8941;BME280;4505;43.406;23.226;2022-12-10T04:27:42;99082.47;;;5.78;100.00
8941;BME280;4505;43.406;23.226;2022-12-10T04:30:10;99072.66;;;6.28;100.00
8941;BME280;4505;43.406;23.226;2022-12-10T04:32:37;99077.41;;;6.19;100.00
8941;BME280;4505;43.406;23.226;2022-12-10T04:35:04;99082.38;;;5.66;100.00
8941;BME280;4505;43.406;23.226;2022-12-10T04:37:30;99093.94;;;5.41;100.00
8941;BME280;4505;43.406;23.226;2022-12-10T04:39:57;99098.94;;;5.49;100.00
8941;BME280;4505;43.406;23.226;2022-12-10T04:42:23;99090.09;;;5.37;100.00
8941;BME280;4505;43.406;23.226;2022-12-10T04:44:51;99092.34;;;5.33;100.00
8941;BME280;4505;43.406;23.226;2022-12-10T04:47:18;99097.34;;;5.41;100.00
8941;BME280;4505;43.406;23.226;2022-12-10T04:49:45;99100.75;;;5.48;100.00
8941;BME280;4505;43.406;23.226;2022-12-10T04:52:12;99093.22;;;5.52;100.00
8941;BME280;4505;43.406;23.226;2022-12-10T04:54:39;99101.81;;;5.90;100.00
8941;BME280;4505;43.406;23.226;2022-12-10T04:57:19;99099.63;;;6.23;100.00
8941;BME280;4505;43.406;23.226;2022-12-10T04:59:46;99099.09;;;6.21;100.00
8941;BME280;4505;43.406;23.226;2022-12-10T05:02:14;99103.16;;;5.99;100.00
8941;BME280;4505;43.406;23.226;2022-12-10T05:04:50;99082.59;;;6.08;100.00
8941;BME280;4505;43.406;23.226;2022-12-10T05:07:16;99081.19;;;5.87;100.00
8941;BME280;4505;43.406;23.226;2022-12-10T05:09:43;99070.53;;;5.51;100.00
8941;BME280;4505;43.406;23.226;2022-12-10T05:12:10;99107.63;;;5.49;100.00
8941;BME280;4505;43.406;23.226;2022-12-10T05:14:36;99103.44;;;5.42;100.00
8941;BME280;4505;43.406;23.226;2022-12-10T05:17:03;99095.97;;;5.39;100.00
8941;BME280;4505;43.406;23.226;2022-12-10T05:19:31;99076.84;;;5.50;100.00
8941;BME280;4505;43.406;23.226;2022-12-10T05:21:57;99091.97;;;5.54;100.00
8941;BME280;4505;43.406;23.226;2022-12-10T05:24:41;99102.91;;;5.58;100.00
8941;BME280;4505;43.406;23.226;2022-12-10T05:27:08;99101.53;;;5.73;100.00
8941;BME280;4505;43.406;23.226;2022-12-10T05:29:34;99095.75;;;5.90;100.00
8941;BME280;4505;43.406;23.226;2022-12-10T05:32:01;99077.81;;;5.98;100.00
8941;BME280;4505;43.406;23.226;2022-12-10T05:34:28;99090.06;;;5.68;100.00
8941;BME280;4505;43.406;23.226;2022-12-10T05:36:56;99070.44;;;6.07;100.00
8941;BME280;4505;43.406;23.226;2022-12-10T05:39:25;99082.75;;;5.70;100.00
8941;BME280;4505;43.406;23.226;2022-12-10T05:41:55;99073.16;;;6.00;100.00
8941;BME280;4505;43.406;23.226;2022-12-10T05:44:21;99058.72;;;6.03;100.00
8941;BME280;4505;43.406;23.226;2022-12-10T05:46:48;99061.50;;;6.26;100.00
8941;BME280;4505;43.406;23.226;2022-12-10T05:49:14;99047.44;;;6.32;100.00
8941;BME280;4505;43.406;23.226;2022-12-10T05:51:41;99042.69;;;6.22;100.00
8941;BME280;4505;43.406;23.226;2022-12-10T05:54:10;99046.06;;;6.29;100.00
8941;BME280;4505;43.406;23.226;2022-12-10T05:56:36;99037.84;;;6.37;100.00
8941;BME280;4505;43.406;23.226;2022-12-10T05:59:03;99034.22;;;6.50;100.00
8941;BME280;4505;43.406;23.226;2022-12-10T06:01:30;99044.09;;;6.54;100.00
8941;BME280;4505;43.406;23.226;2022-12-10T06:03:58;99034.63;;;6.35;100.00
8941;BME280;4505;43.406;23.226;2022-12-10T06:06:25;99030.50;;;6.39;100.00
8941;BME280;4505;43.406;23.226;2022-12-10T06:08:52;99042.59;;;6.29;100.00
8941;BME280;4505;43.406;23.226;2022-12-10T06:11:20;99046.59;;;6.49;100.00
8941;BME280;4505;43.406;23.226;2022-12-10T06:13:46;99028.38;;;6.48;100.00
8941;BME280;4505;43.406;23.226;2022-12-10T06:16:13;99021.50;;;6.29;100.00
8941;BME280;4505;43.406;23.226;2022-12-10T06:18:40;99019.94;;;6.39;100.00
8941;BME280;4505;43.406;23.226;2022-12-10T06:21:08;99022.16;;;6.42;100.00
8941;BME280;4505;43.406;23.226;2022-12-10T06:23:35;99032.81;;;6.47;100.00
8941;BME280;4505;43.406;23.226;2022-12-10T06:26:03;99031.72;;;6.55;100.00
8941;BME280;4505;43.406;23.226;2022-12-10T06:28:31;99043.97;;;6.49;100.00
8941;BME280;4505;43.406;23.226;2022-12-10T06:30:58;99050.31;;;5.94;100.00
8941;BME280;4505;43.406;23.226;2022-12-10T06:33:25;99048.28;;;5.71;100.00
8941;BME280;4505;43.406;23.226;2022-12-10T06:35:51;99048.56;;;6.06;100.00
8941;BME280;4505;43.406;23.226;2022-12-10T06:38:18;99046.50;;;6.26;100.00
8941;BME280;4505;43.406;23.226;2022-12-10T06:40:45;99049.44;;;6.18;100.00
8941;BME280;4505;43.406;23.226;2022-12-10T06:43:11;99058.56;;;6.16;100.00
8941;BME280;4505;43.406;23.226;2022-12-10T06:45:39;99062.44;;;6.79;100.00
8941;BME280;4505;43.406;23.226;2022-12-10T06:48:06;99058.22;;;6.12;100.00
8941;BME280;4505;43.406;23.226;2022-12-10T06:50:33;99044.88;;;6.43;100.00
8941;BME280;4505;43.406;23.226;2022-12-10T06:53:00;99058.72;;;6.03;100.00
8941;BME280;4505;43.406;23.226;2022-12-10T06:55:29;99053.81;;;5.88;100.00
8941;BME280;4505;43.406;23.226;2022-12-10T06:57:56;99068.31;;;5.97;100.00
8941;BME280;4505;43.406;23.226;2022-12-10T07:00:22;99058.34;;;5.99;100.00
8941;BME280;4505;43.406;23.226;2022-12-10T07:02:50;99047.78;;;5.81;100.00
8941;BME280;4505;43.406;23.226;2022-12-10T07:05:17;99049.81;;;5.79;100.00
8941;BME280;4505;43.406;23.226;2022-12-10T07:07:44;99043.59;;;5.73;100.00
8941;BME280;4505;43.406;23.226;2022-12-10T07:10:10;99041.59;;;5.94;100.00
8941;BME280;4505;43.406;23.226;2022-12-10T07:12:37;99028.97;;;5.77;100.00
8941;BME280;4505;43.406;23.226;2022-12-10T07:15:04;99033.09;;;6.10;100.00
8941;BME280;4505;43.406;23.226;2022-12-10T07:17:31;99042.84;;;6.09;100.00
8941;BME280;4505;43.406;23.226;2022-12-10T07:19:59;99026.72;;;5.99;100.00
8941;BME280;4505;43.406;23.226;2022-12-10T07:22:27;99022.97;;;6.25;100.00
8941;BME280;4505;43.406;23.226;2022-12-10T07:24:54;99031.28;;;6.10;100.00
8941;BME280;4505;43.406;23.226;2022-12-10T07:27:20;99028.34;;;6.00;100.00
8941;BME280;4505;43.406;23.226;2022-12-10T07:29:47;99031.09;;;6.23;100.00
8941;BME280;4505;43.406;23.226;2022-12-10T07:32:14;99033.88;;;6.46;100.00
8941;BME280;4505;43.406;23.226;2022-12-10T07:34:51;99033.63;;;6.00;100.00
8941;BME280;4505;43.406;23.226;2022-12-10T07:37:19;99036.19;;;5.89;100.00
8941;BME280;4505;43.406;23.226;2022-12-10T07:39:46;99040.88;;;5.80;100.00
8941;BME280;4505;43.406;23.226;2022-12-10T07:42:13;99045.34;;;5.86;100.00
8941;BME280;4505;43.406;23.226;2022-12-10T07:44:39;99037.00;;;5.89;100.00
8941;BME280;4505;43.406;23.226;2022-12-10T07:47:06;99028.44;;;5.94;100.00
8941;BME280;4505;43.406;23.226;2022-12-10T07:49:33;99030.25;;;5.93;100.00
8941;BME280;4505;43.406;23.226;2022-12-10T07:52:00;99023.72;;;6.14;100.00
8941;BME280;4505;43.406;23.226;2022-12-10T07:54:28;99026.31;;;6.02;100.00
8941;BME280;4505;43.406;23.226;2022-12-10T07:56:54;99039.81;;;6.24;100.00
8941;BME280;4505;43.406;23.226;2022-12-10T07:59:21;99028.72;;;6.51;100.00
8941;BME280;4505;43.406;23.226;2022-12-10T08:01:47;99038.97;;;6.59;100.00
8941;BME280;4505;43.406;23.226;2022-12-10T08:04:14;99036.28;;;6.77;100.00
8941;BME280;4505;43.406;23.226;2022-12-10T08:06:53;99033.66;;;6.77;100.00
8941;BME280;4505;43.406;23.226;2022-12-10T08:09:22;99013.19;;;7.14;100.00
8941;BME280;4505;43.406;23.226;2022-12-10T08:11:50;99026.50;;;7.07;100.00
8941;BME280;4505;43.406;23.226;2022-12-10T08:14:17;99012.53;;;6.48;100.00
8941;BME280;4505;43.406;23.226;2022-12-10T08:16:43;99033.59;;;6.36;100.00
8941;BME280;4505;43.406;23.226;2022-12-10T08:19:10;99032.88;;;6.29;100.00
8941;BME280;4505;43.406;23.226;2022-12-10T08:21:37;99020.16;;;6.38;100.00
8941;BME280;4505;43.406;23.226;2022-12-10T08:24:04;99022.41;;;6.52;100.00
8941;BME280;4505;43.406;23.226;2022-12-10T08:26:31;99016.28;;;6.58;100.00
8941;BME280;4505;43.406;23.226;2022-12-10T08:28:59;99027.78;;;6.75;100.00
8941;BME280;4505;43.406;23.226;2022-12-10T08:31:26;99025.47;;;6.67;100.00
8941;BME280;4505;43.406;23.226;2022-12-10T08:33:53;99012.50;;;7.18;100.00
8941;BME280;4505;43.406;23.226;2022-12-10T08:36:20;99001.56;;;7.84;100.00
8941;BME280;4505;43.406;23.226;2022-12-10T08:38:47;98981.97;;;7.57;100.00
8941;BME280;4505;43.406;23.226;2022-12-10T08:41:14;98967.22;;;7.84;100.00
8941;BME280;4505;43.406;23.226;2022-12-10T08:43:41;98951.72;;;8.16;100.00
8941;BME280;4505;43.406;23.226;2022-12-10T08:46:09;98963.34;;;7.29;100.00
8941;BME280;4505;43.406;23.226;2022-12-10T08:48:36;98970.03;;;7.43;100.00
8941;BME280;4505;43.406;23.226;2022-12-10T08:51:03;98982.19;;;7.32;100.00
8941;BME280;4505;43.406;23.226;2022-12-10T08:53:29;98965.41;;;7.50;100.00
8941;BME280;4505;43.406;23.226;2022-12-10T08:55:56;98945.09;;;7.51;100.00
8941;BME280;4505;43.406;23.226;2022-12-10T08:58:23;98939.34;;;7.65;100.00
8941;BME280;4505;43.406;23.226;2022-12-10T09:00:49;98933.66;;;7.85;100.00
8941;BME280;4505;43.406;23.226;2022-12-10T09:03:17;98931.59;;;7.87;100.00
8941;BME280;4505;43.406;23.226;2022-12-10T09:05:44;98942.19;;;7.87;100.00
8941;BME280;4505;43.406;23.226;2022-12-10T09:08:11;98935.94;;;7.42;100.00
8941;BME280;4505;43.406;23.226;2022-12-10T09:10:52;98939.13;;;6.86;100.00
8941;BME280;4505;43.406;23.226;2022-12-10T09:13:19;98955.66;;;6.93;100.00
8941;BME280;4505;43.406;23.226;2022-12-10T09:15:59;98950.94;;;6.83;100.00
8941;BME280;4505;43.406;23.226;2022-12-10T09:18:27;98962.22;;;6.90;100.00
8941;BME280;4505;43.406;23.226;2022-12-10T09:20:54;98963.50;;;7.11;100.00
8941;BME280;4505;43.406;23.226;2022-12-10T09:23:20;98945.22;;;7.32;100.00
8941;BME280;4505;43.406;23.226;2022-12-10T09:25:47;98953.13;;;7.67;100.00
8941;BME280;4505;43.406;23.226;2022-12-10T09:28:16;98958.28;;;8.13;100.00
8941;BME280;4505;43.406;23.226;2022-12-10T09:30:43;98924.84;;;7.68;100.00
8941;BME280;4505;43.406;23.226;2022-12-10T09:33:10;98948.13;;;7.94;100.00
8941;BME280;4505;43.406;23.226;2022-12-10T09:35:42;98950.78;;;8.22;100.00
8941;BME280;4505;43.406;23.226;2022-12-10T09:38:09;98942.19;;;8.15;100.00
8941;BME280;4505;43.406;23.226;2022-12-10T09:40:38;98936.41;;;7.90;100.00
8941;BME280;4505;43.406;23.226;2022-12-10T09:43:09;98935.72;;;7.94;100.00
8941;BME280;4505;43.406;23.226;2022-12-10T09:45:40;98928.72;;;7.88;100.00
8941;BME280;4505;43.406;23.226;2022-12-10T09:48:15;98912.81;;;8.00;100.00
8941;BME280;4505;43.406;23.226;2022-12-10T09:50:48;98902.59;;;8.48;100.00
8941;BME280;4505;43.406;23.226;2022-12-10T09:53:17;98895.06;;;8.40;100.00
8941;BME280;4505;43.406;23.226;2022-12-10T09:55:45;98894.13;;;8.18;100.00
8941;BME280;4505;43.406;23.226;2022-12-10T09:58:13;98900.69;;;8.43;100.00
8941;BME280;4505;43.406;23.226;2022-12-10T10:00:43;98885.28;;;8.40;100.00
8941;BME280;4505;43.406;23.226;2022-12-10T10:03:11;98872.47;;;8.49;100.00
8941;BME280;4505;43.406;23.226;2022-12-10T10:05:39;98858.31;;;9.10;100.00
8941;BME280;4505;43.406;23.226;2022-12-10T10:08:11;98857.88;;;8.63;100.00
8941;BME280;4505;43.406;23.226;2022-12-10T10:10:41;98858.69;;;8.47;100.00
8941;BME280;4505;43.406;23.226;2022-12-10T10:13:12;98859.94;;;8.00;100.00
8941;BME280;4505;43.406;23.226;2022-12-10T10:15:41;98857.03;;;7.85;100.00
8941;BME280;4505;43.406;23.226;2022-12-10T10:18:25;98861.25;;;7.86;100.00
8941;BME280;4505;43.406;23.226;2022-12-10T10:20:56;98856.38;;;8.06;100.00
8941;BME280;4505;43.406;23.226;2022-12-10T10:23:25;98870.94;;;8.08;100.00
8941;BME280;4505;43.406;23.226;2022-12-10T10:25:51;98859.00;;;8.06;100.00
8941;BME280;4505;43.406;23.226;2022-12-10T10:28:19;98842.22;;;8.95;100.00
8941;BME280;4505;43.406;23.226;2022-12-10T10:30:46;98850.97;;;8.79;100.00
8941;BME280;4505;43.406;23.226;2022-12-10T10:33:13;98848.88;;;8.64;100.00
8941;BME280;4505;43.406;23.226;2022-12-10T10:35:42;98857.00;;;9.12;100.00
8941;BME280;4505;43.406;23.226;2022-12-10T10:38:13;98848.81;;;8.92;100.00
8941;BME280;4505;43.406;23.226;2022-12-10T10:40:42;98841.22;;;9.39;100.00
8941;BME280;4505;43.406;23.226;2022-12-10T10:43:12;98837.47;;;8.97;100.00
8941;BME280;4505;43.406;23.226;2022-12-10T10:45:41;98830.84;;;8.78;100.00
8941;BME280;4505;43.406;23.226;2022-12-10T10:48:09;98815.88;;;8.50;100.00
8941;BME280;4505;43.406;23.226;2022-12-10T10:50:37;98821.41;;;9.03;100.00
8941;BME280;4505;43.406;23.226;2022-12-10T10:55:47;98814.31;;;8.87;100.00
8941;BME280;4505;43.406;23.226;2022-12-10T10:58:28;98814.84;;;8.51;100.00
8941;BME280;4505;43.406;23.226;2022-12-10T11:00:56;98824.13;;;8.53;100.00
8941;BME280;4505;43.406;23.226;2022-12-10T11:03:23;98813.53;;;8.70;100.00
8941;BME280;4505;43.406;23.226;2022-12-10T11:05:50;98815.59;;;9.23;100.00
8941;BME280;4505;43.406;23.226;2022-12-10T11:08:20;98815.41;;;9.29;100.00
8941;BME280;4505;43.406;23.226;2022-12-10T11:10:49;98808.69;;;9.65;100.00
8941;BME280;4505;43.406;23.226;2022-12-10T11:13:19;98801.69;;;9.59;100.00
8941;BME280;4505;43.406;23.226;2022-12-10T11:15:53;98785.34;;;9.67;100.00
8941;BME280;4505;43.406;23.226;2022-12-10T11:18:25;98788.66;;;9.52;100.00
8941;BME280;4505;43.406;23.226;2022-12-10T11:21:05;98791.13;;;9.37;100.00
8941;BME280;4505;43.406;23.226;2022-12-10T11:23:37;98793.94;;;9.52;100.00
8941;BME280;4505;43.406;23.226;2022-12-10T11:26:15;98794.44;;;9.06;100.00
8941;BME280;4505;43.406;23.226;2022-12-10T11:28:48;98771.75;;;9.10;100.00
8941;BME280;4505;43.406;23.226;2022-12-10T11:31:22;98771.84;;;8.99;100.00
8941;BME280;4505;43.406;23.226;2022-12-10T11:33:54;98763.97;;;9.25;100.00
8941;BME280;4505;43.406;23.226;2022-12-10T11:36:27;98762.69;;;9.28;100.00
8941;BME280;4505;43.406;23.226;2022-12-10T11:39:01;98749.56;;;9.16;100.00
8941;BME280;4505;43.406;23.226;2022-12-10T11:41:33;98755.41;;;9.18;100.00
8941;BME280;4505;43.406;23.226;2022-12-10T11:44:08;98752.16;;;9.33;100.00
8941;BME280;4505;43.406;23.226;2022-12-10T11:46:42;98755.19;;;9.46;100.00
8941;BME280;4505;43.406;23.226;2022-12-10T11:49:16;98747.97;;;9.63;100.00
8941;BME280;4505;43.406;23.226;2022-12-10T11:51:48;98749.19;;;9.56;100.00
8941;BME280;4505;43.406;23.226;2022-12-10T11:54:24;98751.91;;;9.87;100.00
8941;BME280;4505;43.406;23.226;2022-12-10T11:56:55;98742.59;;;9.32;100.00
8941;BME280;4505;43.406;23.226;2022-12-10T11:59:28;98737.84;;;8.91;100.00
8941;BME280;4505;43.406;23.226;2022-12-10T12:02:02;98735.25;;;9.17;100.00
8941;BME280;4505;43.406;23.226;2022-12-10T12:04:40;98724.59;;;9.12;100.00
8941;BME280;4505;43.406;23.226;2022-12-10T12:07:19;98711.81;;;9.04;100.00
8941;BME280;4505;43.406;23.226;2022-12-10T12:09:54;98715.44;;;9.20;100.00
8941;BME280;4505;43.406;23.226;2022-12-10T12:12:26;98722.94;;;9.28;100.00
8941;BME280;4505;43.406;23.226;2022-12-10T12:14:58;98716.06;;;9.53;100.00
8941;BME280;4505;43.406;23.226;2022-12-10T12:17:27;98698.75;;;9.72;100.00
8941;BME280;4505;43.406;23.226;2022-12-10T12:19:54;98685.28;;;9.52;100.00
8941;BME280;4505;43.406;23.226;2022-12-10T12:22:24;98677.94;;;9.91;100.00
8941;BME280;4505;43.406;23.226;2022-12-10T12:24:55;98671.44;;;10.03;100.00
8941;BME280;4505;43.406;23.226;2022-12-10T12:27:30;98670.31;;;10.31;100.00
8941;BME280;4505;43.406;23.226;2022-12-10T12:30:00;98667.19;;;9.39;100.00
8941;BME280;4505;43.406;23.226;2022-12-10T12:32:29;98678.94;;;9.27;100.00
8941;BME280;4505;43.406;23.226;2022-12-10T12:34:58;98677.63;;;9.24;100.00
8941;BME280;4505;43.406;23.226;2022-12-10T12:37:28;98684.25;;;9.27;100.00
8941;BME280;4505;43.406;23.226;2022-12-10T12:39:57;98696.09;;;8.98;100.00
8941;BME280;4505;43.406;23.226;2022-12-10T12:42:30;98690.63;;;9.04;100.00
8941;BME280;4505;43.406;23.226;2022-12-10T12:45:03;98688.41;;;8.96;100.00
8941;BME280;4505;43.406;23.226;2022-12-10T12:47:34;98713.56;;;9.20;100.00
8941;BME280;4505;43.406;23.226;2022-12-10T12:50:11;98697.28;;;9.07;100.00
8941;BME280;4505;43.406;23.226;2022-12-10T12:52:46;98683.28;;;9.11;100.00
8941;BME280;4505;43.406;23.226;2022-12-10T12:55:15;98656.31;;;9.14;100.00
8941;BME280;4505;43.406;23.226;2022-12-10T12:57:45;98663.13;;;9.32;100.00
8941;BME280;4505;43.406;23.226;2022-12-10T13:00:14;98652.50;;;9.05;100.00
8941;BME280;4505;43.406;23.226;2022-12-10T13:02:48;98648.53;;;8.81;100.00
8941;BME280;4505;43.406;23.226;2022-12-10T13:05:19;98655.34;;;8.77;100.00
8941;BME280;4505;43.406;23.226;2022-12-10T13:10:29;98633.25;;;8.23;100.00
8941;BME280;4505;43.406;23.226;2022-12-10T13:13:07;98643.41;;;8.15;100.00
8941;BME280;4505;43.406;23.226;2022-12-10T13:15:43;98625.84;;;8.25;100.00
8941;BME280;4505;43.406;23.226;2022-12-10T13:18:20;98628.88;;;8.34;100.00
8941;BME280;4505;43.406;23.226;2022-12-10T13:20:48;98636.00;;;8.33;100.00
8941;BME280;4505;43.406;23.226;2022-12-10T13:26:16;98657.31;;;8.87;100.00
8941;BME280;4505;43.406;23.226;2022-12-10T13:28:50;98657.94;;;8.72;100.00